Time;durP1;ratioP1;P1;durP2;ratioP2;P2;SDS_P1;SDS_P2;PMS_P1;PMS_P2;Temp;Humidity;BMP_temperature;BMP_pressure;BME280_temperature;BME280_humidity;BME280_pressure;Samples;Min_cycle;Max_cycle;Signal;HPM_P1;HPM_P2
2020/12/24 00:01:45;;;;;;;3.03;1.80;;;10.30;99.90;;;;;;4973752;28;20053;-66
2020/12/24 00:04:12;;;;;;;3.13;1.48;;;10.30;99.90;;;;;;4974313;28;20061;-66
2020/12/24 00:06:38;;;;;;;4.18;1.85;;;10.20;99.90;;;;;;4974200;28;20129;-66
2020/12/24 00:09:04;;;;;;;2.78;1.45;;;10.20;99.90;;;;;;4956785;28;20047;-66
2020/12/24 00:11:35;;;;;;;3.55;1.92;;;10.20;99.90;;;;;;4972113;28;20382;-66
2020/12/24 00:14:02;;;;;;;3.47;1.88;;;10.20;99.90;;;;;;4966947;28;20492;-65
2020/12/24 00:16:28;;;;;;;6.38;3.42;;;10.20;99.90;;;;;;4973456;28;20054;-65
2020/12/24 00:18:55;;;;;;;3.45;1.70;;;10.20;99.90;;;;;;4973916;28;20053;-65
2020/12/24 00:21:21;;;;;;;3.42;1.40;;;10.20;99.90;;;;;;4973567;28;20043;-65
2020/12/24 00:23:47;;;;;;;3.70;1.50;;;10.20;99.90;;;;;;4973734;28;20055;-65
2020/12/24 00:26:14;;;;;;;3.80;1.50;;;10.20;99.90;;;;;;4965494;28;20061;-65
2020/12/24 00:28:40;;;;;;;3.88;1.50;;;10.20;99.90;;;;;;4973625;28;20517;-65
2020/12/24 00:31:07;;;;;;;2.72;1.20;;;10.20;99.90;;;;;;4979681;28;20063;-65
2020/12/24 00:33:34;;;;;;;3.65;1.50;;;10.20;99.90;;;;;;4973503;28;20039;-64
2020/12/24 00:36:01;;;;;;;2.67;1.33;;;10.20;99.90;;;;;;4973565;28;20042;-65
2020/12/24 00:38:28;;;;;;;3.13;1.42;;;10.20;99.90;;;;;;4973415;28;20051;-65
2020/12/24 00:40:55;;;;;;;3.45;1.50;;;10.20;99.90;;;;;;4980594;28;20046;-65
2020/12/24 00:43:22;;;;;;;2.97;1.48;;;10.20;99.90;;;;;;4976533;28;20061;-64
2020/12/24 00:45:48;;;;;;;4.20;1.70;;;10.20;99.90;;;;;;4962203;28;20058;-64
2020/12/24 00:48:32;;;;;;;4.15;1.67;;;10.20;99.90;;;;;;4972987;28;20089;-65
2020/12/24 00:50:59;;;;;;;2.17;1.25;;;10.20;99.90;;;;;;4954979;28;20047;-66
2020/12/24 00:53:25;;;;;;;3.58;1.42;;;10.20;99.90;;;;;;4973154;28;20130;-65
2020/12/24 00:55:52;;;;;;;6.78;1.70;;;10.10;99.90;;;;;;4973556;28;20057;-64
2020/12/24 00:58:18;;;;;;;2.83;1.42;;;10.10;99.90;;;;;;4978415;28;20057;-66
2020/12/24 01:00:45;;;;;;;2.85;1.25;;;10.10;99.90;;;;;;4966254;28;20050;-67
2020/12/24 01:03:12;;;;;;;2.88;1.33;;;10.00;99.90;;;;;;4967992;28;20138;-66
2020/12/24 01:05:38;;;;;;;2.60;1.20;;;10.00;99.90;;;;;;4965255;28;20042;-67
2020/12/24 01:08:05;;;;;;;1.73;1.20;;;10.00;99.90;;;;;;4972562;28;20496;-65
2020/12/24 01:10:32;;;;;;;2.22;1.02;;;10.00;99.90;;;;;;4973191;28;20420;-66
2020/12/24 01:12:58;;;;;;;2.92;1.00;;;10.00;99.90;;;;;;4970943;28;20049;-66
2020/12/24 01:15:25;;;;;;;3.70;1.38;;;10.00;99.90;;;;;;4972903;28;20046;-66
2020/12/24 01:17:51;;;;;;;2.83;1.25;;;10.00;99.90;;;;;;4972359;28;20070;-66
2020/12/24 01:20:18;;;;;;;2.67;1.33;;;10.00;99.90;;;;;;4971581;28;20051;-65
2020/12/24 01:22:44;;;;;;;1.83;1.05;;;10.00;99.90;;;;;;4972711;28;20063;-65
2020/12/24 01:25:11;;;;;;;2.72;1.13;;;10.00;99.90;;;;;;4972342;28;20409;-66
2020/12/24 01:27:37;;;;;;;1.90;1.02;;;10.00;99.90;;;;;;4972748;28;20050;-66
2020/12/24 01:30:06;;;;;;;3.38;1.30;;;10.00;99.90;;;;;;4972155;28;20051;-65
2020/12/24 01:32:32;;;;;;;2.85;1.00;;;10.10;99.90;;;;;;4972387;28;20049;-65
2020/12/24 01:34:59;;;;;;;2.03;0.93;;;10.10;99.90;;;;;;4972185;28;20541;-66
2020/12/24 01:37:25;;;;;;;1.40;0.98;;;10.10;99.90;;;;;;4972560;28;20166;-67
2020/12/24 01:39:52;;;;;;;4.05;1.33;;;10.20;99.90;;;;;;4972180;28;20054;-66
2020/12/24 01:42:19;;;;;;;2.30;1.10;;;10.20;99.90;;;;;;4955151;28;20054;-65
2020/12/24 01:44:48;;;;;;;2.05;0.90;;;10.20;99.90;;;;;;4972266;28;20061;-66
2020/12/24 01:47:15;;;;;;;2.35;1.10;;;10.30;99.90;;;;;;4970941;28;20568;-66
2020/12/24 01:49:42;;;;;;;3.90;1.08;;;10.30;99.90;;;;;;4972343;28;20070;-65
2020/12/24 01:52:28;;;;;;;3.17;0.90;;;10.40;99.90;;;;;;4971425;28;20059;-65
2020/12/24 01:54:55;;;;;;;2.15;1.00;;;10.40;99.90;;;;;;4972281;28;20051;-65
2020/12/24 01:57:22;;;;;;;1.98;1.10;;;10.40;99.90;;;;;;4970863;28;20047;-65
2020/12/24 01:59:48;;;;;;;3.35;1.00;;;10.40;99.90;;;;;;4972344;28;20051;-65
2020/12/24 02:02:15;;;;;;;2.78;0.80;;;10.40;99.90;;;;;;4971964;28;20053;-67
2020/12/24 02:04:41;;;;;;;1.67;0.90;;;10.40;99.90;;;;;;4971687;28;20050;-65
2020/12/24 02:07:08;;;;;;;4.18;0.90;;;10.30;99.90;;;;;;4971900;28;20065;-65
2020/12/24 02:09:34;;;;;;;2.33;1.10;;;10.30;99.90;;;;;;4971300;28;20054;-65
2020/12/24 02:12:03;;;;;;;2.15;0.98;;;10.30;99.90;;;;;;4971419;28;20057;-64
2020/12/24 02:14:29;;;;;;;1.75;0.80;;;10.20;99.90;;;;;;4970516;28;20054;-64
2020/12/24 02:16:55;;;;;;;1.98;0.90;;;10.20;99.90;;;;;;4971063;28;20405;-65
2020/12/24 02:19:33;;;;;;;5.40;1.20;;;10.20;99.90;;;;;;4962754;28;20593;-65
2020/12/24 02:22:00;;;;;;;3.20;0.93;;;10.10;99.90;;;;;;4973493;28;20050;-62
2020/12/24 02:24:27;;;;;;;1.48;0.80;;;10.10;99.90;;;;;;4974813;28;20051;-65
2020/12/24 02:26:54;;;;;;;1.40;0.90;;;10.00;99.90;;;;;;4975339;28;20047;-65
2020/12/24 02:29:21;;;;;;;2.47;1.73;;;9.90;99.90;;;;;;4974986;28;20500;-63
2020/12/24 02:31:48;;;;;;;1.77;0.80;;;9.80;99.90;;;;;;4973133;28;20050;-64
2020/12/24 02:34:15;;;;;;;1.50;0.90;;;9.80;99.90;;;;;;4974592;28;20768;-64
2020/12/24 02:36:41;;;;;;;1.75;0.80;;;9.70;99.90;;;;;;4975361;28;20052;-64
2020/12/24 02:39:09;;;;;;;2.58;1.10;;;9.60;99.90;;;;;;4974826;28;20130;-65
2020/12/24 02:41:36;;;;;;;2.28;0.98;;;9.50;99.90;;;;;;4972073;28;20059;-64
2020/12/24 02:44:02;;;;;;;2.58;0.80;;;9.50;99.90;;;;;;4955577;29;20367;-65
2020/12/24 02:46:29;;;;;;;3.22;1.00;;;9.40;99.90;;;;;;4955209;28;20055;-66
2020/12/24 02:48:56;;;;;;;1.55;0.90;;;9.40;99.90;;;;;;4963302;28;20070;-65
2020/12/24 02:51:22;;;;;;;2.25;1.00;;;9.40;99.90;;;;;;4963216;28;20051;-64
2020/12/24 02:53:49;;;;;;;1.60;0.85;;;9.40;99.90;;;;;;4961246;28;20126;-64
2020/12/24 02:56:15;;;;;;;1.77;0.98;;;9.50;99.90;;;;;;4965041;28;20051;-64
2020/12/24 02:58:45;;;;;;;2.78;1.13;;;9.50;99.90;;;;;;4971480;28;20125;-64
2020/12/24 03:01:11;;;;;;;2.67;1.05;;;9.50;99.90;;;;;;4974225;28;20053;-65
2020/12/24 03:03:38;;;;;;;2.45;0.95;;;9.50;99.90;;;;;;4969813;28;20050;-65
2020/12/24 03:06:05;;;;;;;1.60;0.95;;;9.50;99.90;;;;;;4973693;28;20490;-64
2020/12/24 03:08:32;;;;;;;1.80;0.98;;;9.50;99.90;;;;;;4973360;28;20051;-66
2020/12/24 03:10:59;;;;;;;7.28;1.00;;;9.60;99.90;;;;;;4956638;28;20050;-65
2020/12/24 03:13:25;;;;;;;1.85;0.90;;;9.60;99.90;;;;;;4973096;28;20054;-66
2020/12/24 03:15:51;;;;;;;2.20;0.85;;;9.60;99.90;;;;;;4974388;28;20050;-66
2020/12/24 03:18:18;;;;;;;2.35;1.27;;;9.50;99.90;;;;;;4974245;28;20050;-66
2020/12/24 03:20:44;;;;;;;1.88;0.98;;;9.50;99.90;;;;;;4973623;28;20508;-66
2020/12/24 03:23:11;;;;;;;3.47;1.10;;;9.60;99.90;;;;;;4974579;28;20462;-67
2020/12/24 03:25:37;;;;;;;2.20;1.00;;;9.60;99.90;;;;;;4974983;28;20058;-66
2020/12/24 03:28:04;;;;;;;2.55;1.00;;;9.60;99.90;;;;;;4973840;28;20061;-66
2020/12/24 03:30:31;;;;;;;3.30;1.20;;;9.50;99.90;;;;;;4972556;28;20062;-65
2020/12/24 03:32:57;;;;;;;2.78;0.90;;;9.50;99.90;;;;;;4954016;28;20513;-65
2020/12/24 03:35:24;;;;;;;3.42;1.20;;;9.50;99.90;;;;;;4955833;28;20560;-66
2020/12/24 03:37:50;;;;;;;3.92;1.05;;;9.50;99.90;;;;;;4973385;28;20047;-66
2020/12/24 03:40:16;;;;;;;2.38;1.20;;;9.50;99.90;;;;;;4975046;28;20508;-66
2020/12/24 03:42:43;;;;;;;3.47;1.08;;;9.50;99.90;;;;;;4973093;28;20046;-65
2020/12/24 03:45:09;;;;;;;1.85;1.10;;;9.40;99.90;;;;;;4973775;28;20054;-66
2020/12/24 03:47:36;;;;;;;2.83;1.17;;;9.40;99.90;;;;;;4973284;28;20054;-66
2020/12/24 03:50:03;;;;;;;2.40;1.27;;;9.40;99.90;;;;;;4973683;28;20055;-65
2020/12/24 03:52:30;;;;;;;2.03;1.00;;;9.40;99.90;;;;;;4973115;28;20049;-65
2020/12/24 03:54:57;;;;;;;1.75;1.10;;;9.40;99.90;;;;;;4973972;28;20508;-66
2020/12/24 03:57:23;;;;;;;1.17;1.00;;;9.40;99.90;;;;;;4972908;28;20312;-65
2020/12/24 03:59:49;;;;;;;2.83;1.20;;;9.40;99.90;;;;;;4973048;28;20051;-66
2020/12/24 04:02:16;;;;;;;1.80;1.15;;;9.30;99.90;;;;;;4973420;28;20046;-66
2020/12/24 04:04:43;;;;;;;1.90;1.13;;;9.30;99.90;;;;;;4970923;28;20076;-66
2020/12/24 04:07:09;;;;;;;2.15;1.23;;;9.30;99.90;;;;;;4973644;28;20050;-65
2020/12/24 04:09:36;;;;;;;1.65;1.10;;;9.30;99.90;;;;;;4973011;28;20055;-66
2020/12/24 04:12:02;;;;;;;2.90;1.20;;;9.30;99.90;;;;;;4972349;28;20360;-66
2020/12/24 04:14:30;;;;;;;3.90;1.30;;;9.20;99.90;;;;;;4973709;28;20057;-66
2020/12/24 04:16:57;;;;;;;2.88;1.30;;;9.20;99.90;;;;;;4972672;28;20137;-65
2020/12/24 04:19:23;;;;;;;2.10;1.40;;;9.20;99.90;;;;;;4974048;28;20088;-65
2020/12/24 04:21:50;;;;;;;1.90;1.40;;;9.20;99.90;;;;;;4973969;28;20046;-66
2020/12/24 04:24:16;;;;;;;4.15;1.60;;;9.30;99.90;;;;;;4973711;28;20055;-65
2020/12/24 04:26:42;;;;;;;1.75;1.60;;;9.30;99.90;;;;;;4973898;28;20423;-66
2020/12/24 04:29:09;;;;;;;2.17;1.30;;;9.20;99.90;;;;;;4972222;28;20051;-64
2020/12/24 04:31:41;;;;;;;2.03;1.38;;;9.20;99.90;;;;;;4971483;28;20055;-65
2020/12/24 04:34:08;;;;;;;5.28;1.42;;;9.10;99.90;;;;;;4972819;28;20137;-66
2020/12/24 04:36:35;;;;;;;2.95;1.40;;;9.10;99.90;;;;;;4959895;28;20533;-66
2020/12/24 04:39:02;;;;;;;1.50;1.27;;;9.10;99.90;;;;;;4973412;28;20054;-65
2020/12/24 04:41:29;;;;;;;2.33;1.50;;;9.00;99.90;;;;;;4971288;28;20050;-65
2020/12/24 04:43:57;;;;;;;2.40;1.40;;;8.90;99.90;;;;;;4963464;28;20078;-65
2020/12/24 04:46:28;;;;;;;3.08;1.40;;;8.90;99.90;;;;;;4972019;28;20106;-66
2020/12/24 04:48:57;;;;;;;2.20;1.40;;;8.90;99.90;;;;;;4968560;28;20512;-65
2020/12/24 04:51:25;;;;;;;2.50;1.27;;;8.90;99.90;;;;;;4973291;28;20061;-65
2020/12/24 04:53:51;;;;;;;2.28;1.40;;;8.90;99.90;;;;;;4955111;28;20110;-66
2020/12/24 04:56:18;;;;;;;2.88;1.40;;;8.90;99.90;;;;;;4972203;28;20054;-64
2020/12/24 04:58:45;;;;;;;1.75;1.30;;;8.90;99.90;;;;;;4970263;28;20758;-65
2020/12/24 05:01:14;;;;;;;4.00;1.50;;;8.80;99.90;;;;;;4972869;28;20046;-65
2020/12/24 05:03:41;;;;;;;2.60;1.45;;;8.80;99.90;;;;;;4972430;28;20054;-66
2020/12/24 05:06:16;;;;;;;4.18;1.90;;;8.80;99.90;;;;;;4971418;28;20054;-64
2020/12/24 05:08:53;;;;;;;3.90;1.80;;;8.70;99.90;;;;;;4973066;28;20101;-66
2020/12/24 05:11:28;;;;;;;2.83;1.30;;;8.70;99.90;;;;;;4963337;28;20050;-66
2020/12/24 05:13:55;;;;;;;2.92;1.38;;;8.70;99.90;;;;;;4972431;28;20046;-65
2020/12/24 05:16:22;;;;;;;1.70;1.00;;;8.60;99.90;;;;;;4972078;28;20137;-65
2020/12/24 05:18:49;;;;;;;1.23;1.00;;;8.50;99.90;;;;;;4973359;28;20166;-67
2020/12/24 05:21:33;;;;;;;1.77;1.02;;;8.50;99.90;;;;;;4971483;28;20462;-68
2020/12/24 05:24:00;;;;;;;1.60;1.20;;;8.50;99.90;;;;;;4959052;28;20481;-68
2020/12/24 05:26:30;;;;;;;3.83;1.10;;;8.50;99.90;;;;;;4959617;28;20074;-67
2020/12/24 05:29:10;;;;;;;3.78;1.00;;;8.40;99.90;;;;;;4955703;28;20057;-66
2020/12/24 05:31:36;;;;;;;2.95;1.00;;;8.40;99.90;;;;;;4965148;28;20055;-67
2020/12/24 05:34:03;;;;;;;1.05;0.95;;;8.30;99.90;;;;;;4954437;28;20055;-68
2020/12/24 05:36:30;;;;;;;4.55;1.08;;;8.30;99.90;;;;;;4971958;28;20053;-67
2020/12/24 05:38:56;;;;;;;2.38;0.90;;;8.30;99.90;;;;;;4971279;28;20126;-66
2020/12/24 05:41:31;;;;;;;3.45;0.90;;;8.30;99.90;;;;;;4972003;28;20050;-66
2020/12/24 05:44:06;;;;;;;1.67;1.00;;;8.30;99.90;;;;;;4955272;28;20074;-67
2020/12/24 05:46:47;;;;;;;2.35;1.10;;;8.30;99.90;;;;;;4955595;28;20058;-66
2020/12/24 05:49:19;;;;;;;3.75;1.05;;;8.30;99.90;;;;;;4955608;28;20054;-67
2020/12/24 05:52:05;;;;;;;5.20;0.95;;;8.30;99.90;;;;;;4967168;28;20054;-65
2020/12/24 05:54:34;;;;;;;2.42;1.00;;;8.20;99.90;;;;;;4971963;28;20047;-65
2020/12/24 05:57:02;;;;;;;2.70;1.10;;;8.20;99.90;;;;;;4954109;28;20043;-65
2020/12/24 05:59:31;;;;;;;4.13;1.10;;;8.20;99.90;;;;;;4971229;28;20049;-67
2020/12/24 06:02:13;;;;;;;2.10;1.02;;;8.10;99.90;;;;;;4985776;28;20086;-64
2020/12/24 06:04:46;;;;;;;4.82;1.10;;;8.00;99.90;;;;;;4971821;28;20134;-67
2020/12/24 06:07:27;;;;;;;1.77;0.90;;;7.90;99.90;;;;;;4973294;28;20043;-67
2020/12/24 06:09:54;;;;;;;2.80;1.00;;;7.90;99.90;;;;;;4973101;28;20077;-65
2020/12/24 06:12:50;;;;;;;2.75;1.00;;;7.90;99.90;;;;;;4956543;28;20508;-70
2020/12/24 06:15:17;;;;;;;3.43;1.30;;;8.00;99.90;;;;;;4972122;28;20134;-70
2020/12/24 06:17:45;;;;;;;3.95;1.00;;;7.90;99.90;;;;;;4968123;28;20051;-69
2020/12/24 06:20:17;;;;;;;1.50;1.00;;;7.80;99.90;;;;;;4964390;28;20047;-69
2020/12/24 06:22:44;;;;;;;1.40;0.95;;;7.90;99.90;;;;;;4970869;28;20066;-69
2020/12/24 06:25:12;;;;;;;4.13;1.27;;;7.90;99.90;;;;;;4972609;28;20438;-69
2020/12/24 06:27:50;;;;;;;3.47;1.30;;;7.90;99.90;;;;;;4954279;28;20061;-68
2020/12/24 06:30:25;;;;;;;3.95;1.55;;;7.90;99.90;;;;;;4970020;28;20062;-68
2020/12/24 06:32:56;;;;;;;2.85;0.90;;;7.90;99.90;;;;;;4954609;28;20131;-68
2020/12/24 06:35:33;;;;;;;2.55;1.20;;;7.90;99.90;;;;;;4970917;28;20077;-69
2020/12/24 06:37:59;;;;;;;4.85;1.30;;;7.90;99.90;;;;;;4971613;28;20055;-68
2020/12/24 06:40:33;;;;;;;2.35;1.10;;;7.90;99.90;;;;;;4971925;28;20473;-68
2020/12/24 06:43:01;;;;;;;2.45;1.60;;;7.90;99.90;;;;;;4955446;28;20051;-66
2020/12/24 06:45:27;;;;;;;3.53;1.02;;;7.90;99.90;;;;;;4970811;28;20058;-68
2020/12/24 06:48:12;;;;;;;2.30;1.10;;;7.80;99.90;;;;;;4970709;28;20047;-68
2020/12/24 06:50:40;;;;;;;3.13;0.93;;;7.80;99.90;;;;;;4969587;28;20050;-68
2020/12/24 06:53:30;;;;;;;3.88;1.30;;;7.70;99.90;;;;;;4972789;28;20066;-68
2020/12/24 06:56:19;;;;;;;3.35;0.90;;;7.60;99.90;;;;;;4978119;28;20460;-69
2020/12/24 06:58:55;;;;;;;2.03;0.90;;;7.50;99.90;;;;;;4984757;28;20047;-68
2020/12/24 07:01:32;;;;;;;2.47;0.90;;;7.40;99.90;;;;;;4976347;28;20426;-68
2020/12/24 07:04:00;;;;;;;2.03;1.00;;;7.40;99.90;;;;;;4971764;28;20057;-69
2020/12/24 07:06:43;;;;;;;2.63;1.10;;;7.30;99.90;;;;;;4970193;28;20058;-69
2020/12/24 07:09:10;;;;;;;4.13;1.00;;;7.20;99.90;;;;;;4979152;28;20102;-68
2020/12/24 07:11:41;;;;;;;2.25;1.08;;;7.20;99.90;;;;;;4975251;28;20059;-68
2020/12/24 07:14:34;;;;;;;3.70;0.98;;;7.20;99.90;;;;;;4974852;28;20047;-69
2020/12/24 07:17:13;;;;;;;1.65;0.88;;;7.10;99.90;;;;;;4968998;28;20402;-70
2020/12/24 07:19:42;;;;;;;2.35;0.90;;;7.10;99.90;;;;;;4954881;28;20062;-67
2020/12/24 07:22:19;;;;;;;4.15;1.13;;;7.10;99.90;;;;;;4972785;28;20054;-68
2020/12/24 07:24:48;;;;;;;1.90;1.00;;;7.10;99.90;;;;;;4974237;28;21366;-69
2020/12/24 07:27:14;;;;;;;2.50;1.35;;;7.00;99.90;;;;;;4973605;28;20046;-67
2020/12/24 07:29:46;;;;;;;4.35;1.27;;;6.90;99.90;;;;;;4974121;28;20424;-68
2020/12/24 07:32:14;;;;;;;2.05;1.00;;;6.90;99.90;;;;;;4973716;28;20397;-69
2020/12/24 07:34:40;;;;;;;5.93;1.30;;;6.80;99.90;;;;;;4974567;28;20043;-68
2020/12/24 07:37:09;;;;;;;2.88;1.30;;;6.80;99.90;;;;;;4974556;28;20056;-68
2020/12/24 07:39:35;;;;;;;4.05;1.55;;;6.70;99.90;;;;;;4971044;28;20039;-69
2020/12/24 07:42:02;;;;;;;3.60;1.20;;;6.70;99.90;;;;;;4974403;28;20043;-68
2020/12/24 07:44:29;;;;;;;4.47;1.50;;;6.70;99.90;;;;;;4971569;28;20043;-69
2020/12/24 07:47:02;;;;;;;2.90;1.23;;;6.70;99.90;;;;;;4974601;28;20049;-69
2020/12/24 07:49:29;;;;;;;5.72;1.80;;;6.70;99.90;;;;;;4973666;28;20537;-69
2020/12/24 07:51:58;;;;;;;4.90;1.30;;;6.70;99.90;;;;;;4971676;28;20063;-69
2020/12/24 07:54:27;;;;;;;5.60;1.33;;;6.80;99.90;;;;;;4973377;28;20134;-68
2020/12/24 07:56:54;;;;;;;4.03;1.27;;;6.90;99.90;;;;;;4974030;28;20047;-70
2020/12/24 07:59:22;;;;;;;3.33;1.10;;;7.10;99.90;;;;;;4974157;28;20047;-69
2020/12/24 08:01:49;;;;;;;4.30;1.25;;;7.20;99.90;;;;;;4977886;28;20108;-69
2020/12/24 08:04:16;;;;;;;3.58;1.25;;;7.20;99.90;;;;;;4973194;28;20050;-69
2020/12/24 08:06:43;;;;;;;3.78;1.40;;;7.30;99.90;;;;;;4973452;28;20366;-69
2020/12/24 08:09:14;;;;;;;3.22;1.20;;;7.40;99.90;;;;;;4973361;28;20051;-69
2020/12/24 08:11:41;;;;;;;3.45;1.45;;;7.50;99.90;;;;;;4967604;28;20051;-69
2020/12/24 08:14:08;;;;;;;3.85;1.52;;;7.50;99.90;;;;;;4972094;28;20505;-69
2020/12/24 08:16:40;;;;;;;6.70;1.20;;;7.60;99.90;;;;;;4970263;28;20044;-69
2020/12/24 08:19:18;;;;;;;4.63;1.65;;;7.60;99.90;;;;;;4970792;28;20038;-69
2020/12/24 08:22:12;;;;;;;4.07;1.33;;;7.70;99.90;;;;;;4970660;28;20410;-66
2020/12/24 08:24:40;;;;;;;4.78;1.45;;;7.70;99.90;;;;;;4967892;28;20061;-65
2020/12/24 08:27:07;;;;;;;3.90;1.50;;;7.70;99.90;;;;;;4973413;28;20073;-67
2020/12/24 08:29:36;;;;;;;6.10;1.60;;;7.70;99.90;;;;;;4973412;28;20126;-65
2020/12/24 08:32:04;;;;;;;3.88;1.40;;;7.80;99.90;;;;;;4972660;28;20050;-65
2020/12/24 08:34:34;;;;;;;4.18;1.35;;;7.80;99.90;;;;;;4975119;28;20043;-65
2020/12/24 08:37:01;;;;;;;6.68;1.45;;;7.80;99.90;;;;;;4971956;28;20479;-69
2020/12/24 08:39:29;;;;;;;3.75;1.75;;;7.80;99.90;;;;;;4969126;28;20059;-69
2020/12/24 08:41:58;;;;;;;5.82;1.80;;;7.70;99.90;;;;;;4967209;28;20047;-69
2020/12/24 08:44:25;;;;;;;6.13;1.80;;;7.80;99.90;;;;;;4953629;28;20085;-67
2020/12/24 08:47:08;;;;;;;7.53;2.10;;;7.80;99.90;;;;;;4970620;28;20054;-68
2020/12/24 08:49:43;;;;;;;9.35;2.63;;;7.90;99.90;;;;;;4971877;28;20085;-68
2020/12/24 08:52:11;;;;;;;4.07;2.15;;;7.90;99.90;;;;;;4951098;28;20061;-70
2020/12/24 08:54:55;;;;;;;5.03;2.30;;;7.90;99.90;;;;;;4971815;28;20282;-66
2020/12/24 08:57:21;;;;;;;4.88;1.80;;;8.00;99.90;;;;;;4971595;28;20047;-69
2020/12/24 08:59:56;;;;;;;5.72;1.90;;;8.00;99.90;;;;;;4972055;28;20054;-66
2020/12/24 09:02:30;;;;;;;3.70;1.80;;;8.10;99.90;;;;;;4971524;28;20432;-67
2020/12/24 09:05:01;;;;;;;4.10;1.83;;;8.20;99.90;;;;;;4972124;28;20332;-68
2020/12/24 09:07:44;;;;;;;6.97;2.03;;;8.10;99.90;;;;;;4971144;28;20073;-66
2020/12/24 09:10:20;;;;;;;3.60;1.90;;;8.30;99.90;;;;;;4971783;28;20084;-65
2020/12/24 09:12:54;;;;;;;4.78;1.70;;;8.40;99.90;;;;;;4960570;28;20055;-62
2020/12/24 09:15:25;;;;;;;4.13;1.73;;;8.50;99.90;;;;;;4970013;28;20055;-64
2020/12/24 09:17:56;;;;;;;5.50;1.95;;;8.50;99.90;;;;;;4972721;28;20049;-64
2020/12/24 09:20:28;;;;;;;7.15;1.98;;;8.50;99.90;;;;;;4971778;28;20057;-66
2020/12/24 09:23:00;;;;;;;5.45;2.08;;;8.60;99.90;;;;;;4971770;28;20458;-63
2020/12/24 09:25:34;;;;;;;4.50;2.00;;;8.50;99.90;;;;;;4972381;28;20046;-69
2020/12/24 09:28:01;;;;;;;5.15;2.10;;;8.50;99.90;;;;;;4972256;28;20043;-69
2020/12/24 09:30:28;;;;;;;6.82;2.10;;;8.40;99.90;;;;;;4953778;28;20073;-69
2020/12/24 09:33:00;;;;;;;5.57;2.15;;;8.40;99.90;;;;;;4969484;28;20046;-69
2020/12/24 09:35:28;;;;;;;3.97;1.60;;;8.40;99.90;;;;;;4970962;28;20053;-68
2020/12/24 09:37:56;;;;;;;3.60;1.92;;;8.40;99.90;;;;;;4971363;28;20054;-69
2020/12/24 09:40:23;;;;;;;3.58;1.63;;;8.40;99.90;;;;;;4962447;28;20422;-69
2020/12/24 09:42:50;;;;;;;4.68;1.73;;;8.40;99.90;;;;;;4959183;28;20505;-70
2020/12/24 09:45:17;;;;;;;5.45;2.00;;;8.40;99.90;;;;;;4970583;28;20046;-69
2020/12/24 09:47:46;;;;;;;6.25;2.10;;;8.50;99.90;;;;;;4971238;28;20051;-69
2020/12/24 09:50:13;;;;;;;8.40;2.17;;;8.50;99.90;;;;;;4969654;28;20130;-66
2020/12/24 09:52:40;;;;;;;4.75;2.00;;;8.40;99.90;;;;;;4934250;29;20055;-69
2020/12/24 09:55:07;;;;;;;4.72;1.90;;;8.30;99.90;;;;;;4966949;28;20061;-67
2020/12/24 09:57:34;;;;;;;4.40;1.67;;;8.30;99.90;;;;;;4971622;28;20054;-68
2020/12/24 10:00:03;;;;;;;4.90;1.88;;;8.10;99.90;;;;;;4969132;28;20050;-69
2020/12/24 10:02:30;;;;;;;7.43;1.95;;;8.00;99.90;;;;;;4952263;28;20050;-69
2020/12/24 10:04:57;;;;;;;5.00;2.22;;;8.00;99.90;;;;;;4969812;28;20414;-71
2020/12/24 10:07:23;;;;;;;8.00;2.03;;;7.90;99.90;;;;;;4972419;28;20429;-69
2020/12/24 10:09:54;;;;;;;4.38;2.20;;;7.90;99.90;;;;;;4954771;28;20050;-69
2020/12/24 10:12:21;;;;;;;4.45;1.88;;;7.90;99.90;;;;;;4953767;28;20050;-69
2020/12/24 10:14:49;;;;;;;6.88;2.00;;;8.00;99.90;;;;;;4969469;28;20047;-69
2020/12/24 10:17:15;;;;;;;5.13;2.00;;;7.90;99.90;;;;;;4971273;28;20118;-70
2020/12/24 10:19:43;;;;;;;5.53;1.90;;;7.90;99.90;;;;;;4968562;28;20051;-68
2020/12/24 10:22:11;;;;;;;4.05;1.50;;;7.90;99.90;;;;;;4971758;28;20043;-69
2020/12/24 10:24:49;;;;;;;5.65;1.50;;;7.90;99.90;;;;;;4970773;28;20129;-68
2020/12/24 10:27:16;;;;;;;3.85;1.73;;;7.90;99.90;;;;;;4970411;28;20061;-70
2020/12/24 10:29:42;;;;;;;5.85;1.65;;;7.90;99.90;;;;;;4970552;28;20053;-69
2020/12/24 10:32:09;;;;;;;4.25;2.03;;;7.90;99.90;;;;;;4968942;28;20063;-69
2020/12/24 10:34:35;;;;;;;8.15;1.60;;;7.90;99.90;;;;;;4969191;28;20405;-68
2020/12/24 10:37:02;;;;;;;7.22;1.55;;;7.90;99.90;;;;;;4965778;28;20462;-69
2020/12/24 10:39:29;;;;;;;6.60;1.40;;;7.80;99.90;;;;;;4968962;28;20540;-69
2020/12/24 10:41:56;;;;;;;7.55;1.67;;;7.90;99.90;;;;;;4973010;28;20346;-67
2020/12/24 10:44:23;;;;;;;5.30;1.60;;;7.90;99.90;;;;;;4973578;28;20416;-66
2020/12/24 10:46:54;;;;;;;7.50;2.33;;;7.80;99.90;;;;;;4974331;28;20054;-67
2020/12/24 10:49:20;;;;;;;6.45;1.60;;;7.80;99.90;;;;;;4973346;28;20417;-67
2020/12/24 10:51:47;;;;;;;5.60;1.77;;;7.70;99.90;;;;;;4973959;28;20515;-66
2020/12/24 10:54:14;;;;;;;4.50;1.30;;;7.80;99.90;;;;;;4972609;28;20081;-68
2020/12/24 10:56:45;;;;;;;6.32;1.77;;;7.80;99.90;;;;;;4973998;28;20051;-69
2020/12/24 10:59:12;;;;;;;5.28;1.70;;;7.80;99.90;;;;;;4971110;28;20053;-69
2020/12/24 11:01:43;;;;;;;6.72;1.92;;;7.80;99.90;;;;;;4974720;28;20445;-70
2020/12/24 11:04:09;;;;;;;7.68;1.60;;;7.80;99.90;;;;;;4973998;28;20101;-69
2020/12/24 11:06:36;;;;;;;5.65;1.55;;;7.80;99.90;;;;;;4975176;28;20059;-67
2020/12/24 11:09:02;;;;;;;7.43;1.80;;;7.80;99.90;;;;;;4974809;28;20053;-68
2020/12/24 11:11:34;;;;;;;4.80;1.50;;;7.80;99.90;;;;;;4974179;28;20505;-69
2020/12/24 11:14:00;;;;;;;6.70;1.80;;;7.80;99.90;;;;;;4974247;28;20417;-69
2020/12/24 11:16:27;;;;;;;7.28;1.77;;;7.70;99.90;;;;;;4973452;28;20054;-69
2020/12/24 11:18:53;;;;;;;6.07;1.60;;;7.60;99.90;;;;;;4974194;28;20508;-68
2020/12/24 11:21:20;;;;;;;7.50;1.58;;;7.60;99.90;;;;;;4973052;28;20074;-70
2020/12/24 11:23:47;;;;;;;5.10;1.77;;;7.50;99.90;;;;;;4974502;28;20054;-70
2020/12/24 11:26:24;;;;;;;6.30;1.52;;;7.50;99.90;;;;;;4973992;28;20061;-69
2020/12/24 11:28:54;;;;;;;7.70;1.77;;;7.50;99.90;;;;;;4973553;28;20414;-69
2020/12/24 11:31:25;;;;;;;4.97;1.83;;;7.50;99.90;;;;;;4973422;28;20051;-68
2020/12/24 11:33:52;;;;;;;6.27;1.60;;;7.50;99.90;;;;;;4974231;28;20401;-68
2020/12/24 11:36:19;;;;;;;5.07;1.42;;;7.50;99.90;;;;;;4973422;28;20051;-67
2020/12/24 11:38:47;;;;;;;6.38;1.55;;;7.50;99.90;;;;;;4974000;28;20047;-69
2020/12/24 11:41:22;;;;;;;6.43;1.67;;;7.50;99.90;;;;;;4974078;28;20109;-68
2020/12/24 11:43:50;;;;;;;6.90;1.98;;;7.50;99.90;;;;;;4973244;28;20058;-69
2020/12/24 11:46:18;;;;;;;5.70;1.65;;;7.50;99.90;;;;;;4963426;28;20055;-69
2020/12/24 11:48:46;;;;;;;5.72;1.40;;;7.40;99.90;;;;;;4970608;28;20043;-68
2020/12/24 11:51:14;;;;;;;8.55;1.88;;;7.30;99.90;;;;;;4941268;29;20062;-69
2020/12/24 11:53:41;;;;;;;3.67;1.50;;;7.30;99.90;;;;;;4969149;28;20055;-70
2020/12/24 11:56:12;;;;;;;3.90;1.50;;;7.20;99.90;;;;;;4973163;28;20054;-70
2020/12/24 11:58:39;;;;;;;4.90;1.90;;;7.20;99.90;;;;;;4971346;28;20581;-69
2020/12/24 12:01:06;;;;;;;3.00;1.10;;;7.10;99.90;;;;;;4972767;28;20062;-69
2020/12/24 12:03:32;;;;;;;4.57;1.25;;;7.10;99.90;;;;;;4972581;28;20085;-69
2020/12/24 12:05:59;;;;;;;3.53;1.45;;;7.10;99.90;;;;;;4973263;28;20093;-70
2020/12/24 12:08:25;;;;;;;5.57;1.73;;;7.10;99.90;;;;;;4972915;28;20062;-68
2020/12/24 12:10:52;;;;;;;3.28;1.38;;;7.10;99.90;;;;;;4969010;28;20042;-69
2020/12/24 12:13:18;;;;;;;4.90;1.45;;;7.00;99.90;;;;;;4973419;28;20058;-69
2020/12/24 12:15:44;;;;;;;6.80;1.48;;;7.10;99.90;;;;;;4970415;28;20796;-70
2020/12/24 12:18:11;;;;;;;3.90;1.35;;;7.10;99.90;;;;;;4972998;28;20051;-71
2020/12/24 12:20:41;;;;;;;3.75;1.20;;;7.10;99.90;;;;;;4972209;28;20039;-69
2020/12/24 12:23:07;;;;;;;9.02;2.55;;;7.10;99.90;;;;;;4973118;28;20057;-69
2020/12/24 12:25:34;;;;;;;3.55;1.40;;;7.10;99.90;;;;;;4971899;28;20509;-69
2020/12/24 12:28:00;;;;;;;2.42;1.20;;;7.20;99.90;;;;;;4973575;28;20401;-69
2020/12/24 12:30:27;;;;;;;7.07;1.60;;;7.20;99.90;;;;;;4972841;28;20073;-68
2020/12/24 12:32:53;;;;;;;2.80;1.02;;;7.20;99.90;;;;;;4973475;28;20054;-68
2020/12/24 12:35:21;;;;;;;2.92;1.38;;;7.20;99.90;;;;;;4972714;28;20401;-67
2020/12/24 12:37:47;;;;;;;3.22;1.30;;;7.20;99.90;;;;;;4971939;28;20462;-68
2020/12/24 12:40:14;;;;;;;5.47;1.25;;;7.20;99.90;;;;;;4972287;28;20055;-67
2020/12/24 12:42:40;;;;;;;3.92;1.17;;;7.20;99.90;;;;;;4961563;28;20135;-68
2020/12/24 12:45:10;;;;;;;3.08;1.20;;;7.10;99.90;;;;;;4972555;28;20089;-68
2020/12/24 12:47:40;;;;;;;4.45;1.27;;;7.20;99.90;;;;;;4970372;28;20397;-69
2020/12/24 12:50:11;;;;;;;5.72;1.20;;;7.10;99.90;;;;;;4973256;28;20058;-67
2020/12/24 12:52:38;;;;;;;2.97;1.13;;;7.10;99.90;;;;;;4947543;28;20055;-69
2020/12/24 12:55:05;;;;;;;4.68;1.25;;;7.10;99.90;;;;;;4973855;28;20333;-69
2020/12/24 12:57:35;;;;;;;3.83;1.25;;;7.00;99.90;;;;;;4972052;28;20043;-65
2020/12/24 13:00:08;;;;;;;2.63;1.25;;;7.00;99.90;;;;;;4972776;28;20045;-65
2020/12/24 13:02:35;;;;;;;2.33;0.90;;;7.00;99.90;;;;;;4970389;28;20051;-66
2020/12/24 13:05:06;;;;;;;2.20;0.95;;;7.20;99.90;;;;;;4971882;28;20051;-65